createdAt,value
2019-02-02T00:01:49.783Z,2.80
2019-02-02T00:04:19.186Z,2.70
2019-02-02T00:06:48.545Z,2.70
2019-02-02T00:09:17.923Z,2.70
2019-02-02T00:11:47.287Z,2.70
2019-02-02T00:14:16.635Z,2.70
2019-02-02T00:16:45.994Z,2.70
2019-02-02T00:19:18.438Z,2.70
2019-02-02T00:21:47.670Z,2.70
2019-02-02T00:24:17.041Z,2.70
2019-02-02T00:29:52.055Z,2.70
2019-02-02T00:32:21.439Z,2.70
2019-02-02T00:34:50.765Z,2.70
2019-02-02T00:37:20.235Z,2.70
2019-02-02T00:39:49.559Z,2.70
2019-02-02T00:42:18.944Z,2.80
2019-02-02T00:44:48.239Z,2.80
2019-02-02T00:47:17.573Z,2.80
2019-02-02T00:49:46.912Z,2.80
2019-02-02T00:52:16.365Z,2.80
2019-02-02T00:54:45.731Z,2.80
2019-02-02T00:57:15.158Z,2.80
2019-02-02T00:59:44.466Z,2.80
2019-02-02T01:02:13.806Z,2.90
2019-02-02T01:04:43.155Z,2.90
2019-02-02T01:07:12.558Z,2.90
2019-02-02T01:09:42.904Z,2.90
2019-02-02T01:12:12.288Z,3.00
2019-02-02T01:14:41.659Z,3.00
2019-02-02T01:17:10.999Z,3.00
2019-02-02T01:19:40.293Z,3.00
2019-02-02T01:22:09.588Z,3.00
2019-02-02T01:24:38.861Z,2.90
2019-02-02T01:27:08.257Z,2.90
2019-02-02T01:29:37.659Z,2.80
2019-02-02T01:32:07.028Z,2.90
2019-02-02T01:34:36.379Z,2.90
2019-02-02T01:37:05.761Z,2.90
2019-02-02T01:39:35.077Z,2.90
2019-02-02T01:42:04.551Z,2.90
2019-02-02T01:44:34.066Z,3.00
2019-02-02T01:47:03.440Z,3.00
2019-02-02T01:49:32.816Z,3.10
2019-02-02T01:52:02.162Z,3.10
2019-02-02T01:54:33.553Z,3.10
2019-02-02T01:57:03.195Z,3.00
2019-02-02T01:59:32.509Z,3.00
2019-02-02T02:02:01.882Z,3.00
2019-02-02T02:04:31.267Z,3.00
2019-02-02T02:07:00.639Z,3.00
2019-02-02T02:09:30.025Z,3.00
2019-02-02T02:11:59.338Z,3.00
2019-02-02T02:14:28.665Z,3.00
2019-02-02T02:16:58.357Z,3.00
2019-02-02T02:19:27.729Z,3.00
2019-02-02T02:21:57.178Z,3.10
2019-02-02T02:24:26.491Z,3.00
2019-02-02T02:26:55.779Z,3.00
2019-02-02T02:29:25.975Z,3.00
2019-02-02T02:31:55.274Z,3.00
2019-02-02T02:34:25.474Z,3.00
2019-02-02T02:36:54.889Z,3.00
2019-02-02T02:39:24.241Z,3.00
2019-02-02T02:41:53.590Z,2.90
2019-02-02T02:44:22.978Z,2.90
2019-02-02T02:46:52.310Z,2.90
2019-02-02T02:49:21.670Z,2.80
2019-02-02T02:51:51.030Z,2.80
2019-02-02T02:54:20.384Z,2.80
2019-02-02T02:56:49.695Z,2.80
2019-02-02T02:59:18.961Z,2.70
2019-02-02T03:01:48.334Z,2.70
2019-02-02T03:04:17.638Z,2.70
2019-02-02T03:06:46.917Z,2.70
2019-02-02T03:09:16.219Z,2.70
2019-02-02T03:11:45.629Z,2.70
2019-02-02T03:14:14.987Z,2.70
2019-02-02T03:16:44.365Z,2.70
2019-02-02T03:19:13.741Z,2.70
2019-02-02T03:21:43.900Z,2.80
2019-02-02T03:24:13.455Z,2.70
2019-02-02T03:26:42.877Z,2.80
2019-02-02T03:29:12.208Z,2.80
2019-02-02T03:31:41.597Z,2.70
2019-02-02T03:34:10.911Z,2.70
2019-02-02T03:36:40.322Z,2.70
2019-02-02T03:39:11.975Z,2.70
2019-02-02T03:41:41.362Z,2.70
2019-02-02T03:44:10.683Z,2.70
2019-02-02T03:46:39.986Z,2.70
2019-02-02T03:49:09.257Z,2.70
2019-02-02T03:51:38.580Z,2.70
2019-02-02T03:54:09.159Z,2.80
2019-02-02T03:56:43.258Z,2.80
2019-02-02T03:59:12.636Z,2.90
2019-02-02T04:01:41.918Z,2.90
2019-02-02T04:04:11.390Z,2.90
2019-02-02T04:06:40.773Z,2.90
2019-02-02T04:09:10.148Z,2.90
2019-02-02T04:11:39.458Z,2.90
2019-02-02T04:14:08.835Z,2.90
2019-02-02T04:16:38.211Z,2.90
2019-02-02T04:19:07.576Z,2.90
2019-02-02T04:21:36.870Z,3.00
2019-02-02T04:24:06.165Z,3.00
2019-02-02T04:26:35.530Z,3.00
2019-02-02T04:29:04.846Z,2.90
2019-02-02T04:31:34.264Z,2.80
2019-02-02T04:34:04.043Z,2.80
2019-02-02T04:36:33.329Z,2.80
2019-02-02T04:39:02.662Z,2.70
2019-02-02T04:41:31.975Z,2.70
2019-02-02T04:44:01.387Z,2.70
2019-02-02T04:46:30.643Z,2.70
2019-02-02T04:48:59.859Z,2.70
2019-02-02T04:51:29.184Z,2.70
2019-02-02T04:53:58.472Z,2.70
2019-02-02T04:56:27.816Z,2.70
2019-02-02T04:58:57.190Z,2.70
2019-02-02T05:01:26.454Z,2.60
2019-02-02T05:03:55.844Z,2.60
2019-02-02T05:06:25.211Z,2.50
2019-02-02T05:08:54.498Z,2.50
2019-02-02T05:11:23.853Z,2.50
2019-02-02T05:13:53.133Z,2.50
2019-02-02T05:16:22.507Z,2.40
2019-02-02T05:18:51.763Z,2.40
2019-02-02T05:21:21.077Z,2.40
2019-02-02T05:23:50.453Z,2.30
2019-02-02T05:26:19.903Z,2.40
2019-02-02T05:28:49.275Z,2.40
2019-02-02T05:31:18.646Z,2.50
2019-02-02T05:33:48.058Z,2.50
2019-02-02T05:36:17.566Z,2.50
2019-02-02T05:38:46.919Z,2.50
2019-02-02T05:41:16.222Z,2.50
2019-02-02T05:43:45.544Z,2.40
2019-02-02T05:46:14.906Z,2.40
2019-02-02T05:48:44.292Z,2.30
2019-02-02T05:51:13.703Z,2.40
2019-02-02T05:53:42.988Z,2.40
2019-02-02T05:56:12.336Z,2.40
2019-02-02T05:58:41.697Z,2.40
2019-02-02T06:01:15.997Z,2.40
2019-02-02T06:03:45.303Z,2.40
2019-02-02T06:06:14.586Z,2.40
2019-02-02T06:08:43.930Z,2.50
2019-02-02T06:11:13.325Z,2.40
2019-02-02T06:13:42.711Z,2.50
2019-02-02T06:16:12.015Z,2.50
2019-02-02T06:18:41.299Z,2.50
2019-02-02T06:21:10.618Z,2.50
2019-02-02T06:23:39.949Z,2.40
2019-02-02T06:26:09.228Z,2.40
2019-02-02T06:28:38.610Z,2.30
2019-02-02T06:31:07.902Z,2.30
2019-02-02T06:33:37.277Z,2.30
2019-02-02T06:36:06.634Z,2.30
2019-02-02T06:38:36.034Z,2.20
2019-02-02T06:41:05.388Z,2.20
2019-02-02T06:43:34.758Z,2.20
2019-02-02T06:46:05.060Z,2.20
2019-02-02T06:48:34.440Z,2.20
2019-02-02T06:51:03.890Z,2.20
2019-02-02T06:53:33.305Z,2.20
2019-02-02T06:56:02.694Z,2.20
2019-02-02T06:58:32.145Z,2.20
2019-02-02T07:01:01.453Z,2.10
2019-02-02T07:03:30.868Z,2.10
2019-02-02T07:06:00.224Z,2.10
2019-02-02T07:08:29.617Z,2.10
2019-02-02T07:10:58.994Z,2.10
2019-02-02T07:13:28.367Z,2.10
2019-02-02T07:15:57.800Z,2.10
2019-02-02T07:18:27.195Z,2.10
2019-02-02T07:20:56.470Z,2.10
2019-02-02T07:23:25.905Z,2.20
2019-02-02T07:25:55.198Z,2.20
2019-02-02T07:28:24.638Z,2.20
2019-02-02T07:30:54.176Z,2.20
2019-02-02T07:33:23.508Z,2.20
2019-02-02T07:35:54.149Z,2.20
2019-02-02T07:38:23.631Z,2.20
2019-02-02T07:40:53.061Z,2.20
2019-02-02T07:43:22.457Z,2.20
2019-02-02T07:45:51.856Z,2.20
2019-02-02T07:48:21.322Z,2.20
2019-02-02T07:50:50.702Z,2.20
2019-02-02T07:53:21.663Z,2.20
2019-02-02T07:55:51.049Z,2.20
2019-02-02T07:58:20.464Z,2.20
2019-02-02T08:00:49.890Z,2.30
2019-02-02T08:03:19.312Z,2.30
2019-02-02T08:05:48.706Z,2.30
2019-02-02T08:08:18.108Z,2.30
2019-02-02T08:10:47.500Z,2.30
2019-02-02T08:13:17.314Z,2.40
2019-02-02T08:15:46.724Z,2.40
2019-02-02T08:18:16.108Z,2.40
2019-02-02T08:20:45.512Z,2.40
2019-02-02T08:23:14.899Z,2.40
2019-02-02T08:25:44.309Z,2.40
2019-02-02T08:28:13.736Z,2.40
2019-02-02T08:30:52.126Z,2.40
2019-02-02T08:33:14.210Z,2.40
2019-02-02T08:35:43.525Z,2.40
2019-02-02T08:38:12.890Z,2.30
2019-02-02T08:40:42.360Z,2.30
2019-02-02T08:43:11.739Z,2.30
2019-02-02T08:45:41.519Z,2.30
2019-02-02T08:48:10.926Z,2.30
2019-02-02T08:50:40.313Z,2.30
2019-02-02T08:53:09.685Z,2.30
2019-02-02T08:55:39.356Z,2.40
2019-02-02T08:58:08.861Z,2.40
2019-02-02T09:00:38.218Z,2.40
2019-02-02T09:03:07.675Z,2.50
2019-02-02T09:05:37.098Z,2.50
2019-02-02T09:08:06.540Z,2.50
2019-02-02T09:10:36.053Z,2.50
2019-02-02T09:13:05.746Z,2.50
2019-02-02T09:15:35.068Z,2.50
2019-02-02T09:18:04.623Z,2.50
2019-02-02T09:20:34.015Z,2.50
2019-02-02T09:23:06.695Z,2.50
2019-02-02T09:25:35.916Z,2.50
2019-02-02T09:28:05.290Z,2.50
2019-02-02T09:30:37.044Z,2.50
2019-02-02T09:33:07.109Z,2.50
2019-02-02T09:35:36.596Z,2.50
2019-02-02T09:38:06.690Z,2.40
2019-02-02T09:40:36.117Z,2.50
2019-02-02T09:43:06.603Z,2.50
2019-02-02T09:45:35.888Z,2.50
2019-02-02T09:48:05.633Z,2.50
2019-02-02T09:50:35.162Z,2.50
2019-02-02T09:53:05.070Z,2.50
2019-02-02T09:55:34.457Z,2.60
2019-02-02T09:58:09.471Z,2.60
2019-02-02T10:00:40.401Z,2.60
2019-02-02T10:03:09.758Z,2.70
2019-02-02T10:05:39.203Z,2.70
2019-02-02T10:08:08.778Z,2.70
2019-02-02T10:10:38.205Z,2.70
2019-02-02T10:13:07.939Z,2.70
2019-02-02T10:15:37.764Z,2.70
2019-02-02T10:18:07.394Z,2.70
2019-02-02T10:20:36.700Z,2.70
2019-02-02T10:23:06.544Z,2.70
2019-02-02T10:25:35.842Z,2.70
2019-02-02T10:28:05.872Z,2.70
2019-02-02T10:30:40.323Z,2.80
2019-02-02T10:33:10.542Z,2.80
2019-02-02T10:35:39.868Z,2.90
2019-02-02T10:38:09.274Z,2.90
2019-02-02T10:40:38.647Z,2.90
2019-02-02T10:43:08.342Z,2.90
2019-02-02T10:45:37.825Z,2.80
2019-02-02T10:48:07.977Z,2.80
2019-02-02T10:50:37.351Z,2.80
2019-02-02T10:53:06.864Z,2.80
2019-02-02T10:55:36.291Z,2.80
2019-02-02T10:58:06.484Z,2.80
2019-02-02T11:00:37.696Z,2.70
2019-02-02T11:03:07.090Z,2.70
2019-02-02T11:05:36.553Z,2.60
2019-02-02T11:08:06.640Z,2.60
2019-02-02T11:10:36.501Z,2.50
2019-02-02T11:13:07.673Z,2.40
2019-02-02T11:15:37.159Z,2.30
2019-02-02T11:18:07.112Z,2.30
2019-02-02T11:20:36.759Z,2.20
2019-02-02T11:23:06.383Z,2.20
2019-02-02T11:25:35.965Z,2.30
2019-02-02T11:28:05.591Z,2.20
2019-02-02T11:30:35.009Z,2.20
2019-02-02T11:33:04.507Z,2.30
2019-02-02T11:35:33.921Z,2.30
2019-02-02T11:38:03.383Z,2.30
2019-02-02T11:40:33.841Z,2.30
2019-02-02T11:43:03.466Z,2.30
2019-02-02T11:45:32.921Z,2.30
2019-02-02T11:48:02.295Z,2.30
2019-02-02T11:50:31.683Z,2.40
2019-02-02T11:53:01.064Z,2.30
2019-02-02T11:55:30.448Z,2.30
2019-02-02T11:57:59.731Z,2.30
2019-02-02T12:00:34.075Z,2.40
2019-02-02T12:03:04.433Z,2.40
2019-02-02T12:05:34.186Z,2.40
2019-02-02T12:08:03.625Z,2.50
2019-02-02T12:10:33.281Z,2.50
2019-02-02T12:13:02.854Z,2.60
2019-02-02T12:15:32.269Z,2.70
2019-02-02T12:18:01.557Z,2.70
2019-02-02T12:20:33.100Z,2.80
2019-02-02T12:23:02.005Z,2.80
2019-02-02T12:25:31.275Z,2.80
2019-02-02T12:28:00.630Z,2.80
2019-02-02T12:30:32.025Z,2.80
2019-02-02T12:33:03.124Z,2.80
2019-02-02T12:35:32.417Z,2.80
2019-02-02T12:38:01.797Z,2.80
2019-02-02T12:40:31.077Z,2.80
2019-02-02T12:43:00.447Z,2.80
2019-02-02T12:45:52.454Z,2.80
2019-02-02T12:48:21.825Z,2.80
2019-02-02T12:50:51.229Z,2.80
2019-02-02T12:53:20.613Z,2.70
2019-02-02T12:55:50.044Z,2.70
2019-02-02T12:58:19.403Z,2.70
2019-02-02T13:00:48.883Z,2.80
2019-02-02T13:03:18.277Z,2.80
2019-02-02T13:05:47.585Z,2.80
2019-02-02T13:08:16.979Z,2.80
2019-02-02T13:10:46.349Z,2.90
2019-02-02T13:13:15.653Z,2.90
2019-02-02T13:15:45.122Z,2.90
2019-02-02T13:18:14.521Z,2.90
2019-02-02T13:20:43.904Z,2.90
2019-02-02T13:23:13.287Z,2.90
2019-02-02T13:25:42.688Z,2.80
2019-02-02T13:28:11.980Z,2.90
2019-02-02T13:30:41.368Z,2.90
2019-02-02T13:33:10.704Z,2.90
2019-02-02T13:35:42.458Z,2.90
2019-02-02T13:38:11.926Z,2.90
2019-02-02T13:40:41.221Z,2.90
2019-02-02T13:43:10.533Z,2.80
2019-02-02T13:45:39.949Z,2.80
2019-02-02T13:48:09.287Z,2.80
2019-02-02T13:50:38.630Z,2.80
2019-02-02T13:53:09.228Z,2.80
2019-02-02T13:55:39.923Z,2.70
2019-02-02T13:58:09.497Z,2.70
2019-02-02T14:00:38.986Z,2.70
2019-02-02T14:03:08.270Z,2.70
2019-02-02T14:05:38.214Z,2.60
2019-02-02T14:08:07.536Z,2.60
2019-02-02T14:10:36.960Z,2.60
2019-02-02T14:13:06.256Z,2.70
2019-02-02T14:15:35.660Z,2.70
2019-02-02T14:18:05.034Z,2.80
2019-02-02T14:20:34.369Z,2.70
2019-02-02T14:23:03.767Z,2.80
2019-02-02T14:25:33.078Z,2.70
2019-02-02T14:28:02.450Z,2.80
2019-02-02T14:30:31.849Z,2.80
2019-02-02T14:33:12.985Z,2.90
2019-02-02T14:35:32.211Z,2.80
2019-02-02T14:38:01.546Z,2.80
2019-02-02T14:40:30.869Z,2.90
2019-02-02T14:43:00.210Z,2.90
2019-02-02T14:45:29.484Z,2.90
2019-02-02T14:47:58.839Z,2.90
2019-02-02T14:50:28.264Z,3.00
2019-02-02T14:52:57.645Z,3.10
2019-02-02T14:55:28.692Z,3.10
2019-02-02T14:57:57.967Z,3.00
2019-02-02T15:00:29.158Z,3.10
2019-02-02T15:02:58.493Z,3.10
2019-02-02T15:05:27.917Z,3.10
2019-02-02T15:07:57.348Z,3.00
2019-02-02T15:10:26.797Z,3.00
2019-02-02T15:12:56.161Z,3.00
2019-02-02T15:15:25.584Z,3.00
2019-02-02T15:17:54.953Z,2.90
2019-02-02T15:20:29.826Z,3.00
2019-02-02T15:22:59.225Z,3.00
2019-02-02T15:25:28.617Z,3.00
2019-02-02T15:27:57.991Z,3.00
2019-02-02T15:30:28.211Z,3.00
2019-02-02T15:32:57.730Z,2.90
2019-02-02T15:35:27.575Z,3.00
2019-02-02T15:37:56.986Z,3.00
2019-02-02T15:40:26.413Z,3.00
2019-02-02T15:42:55.870Z,3.00
2019-02-02T15:45:26.405Z,2.90
2019-02-02T15:47:55.913Z,3.00
2019-02-02T15:50:25.350Z,3.00
2019-02-02T15:52:54.778Z,3.00
2019-02-02T15:55:24.659Z,2.90
2019-02-02T15:57:53.910Z,2.90
2019-02-02T16:00:28.144Z,2.90
2019-02-02T16:02:57.493Z,3.00
2019-02-02T16:05:26.907Z,3.00
2019-02-02T16:07:57.047Z,3.00
2019-02-02T16:10:27.709Z,3.10
2019-02-02T16:12:57.773Z,3.00
2019-02-02T16:15:27.090Z,3.10
2019-02-02T16:17:56.458Z,3.10
2019-02-02T16:20:31.148Z,3.10
2019-02-02T16:23:00.571Z,3.10
2019-02-02T16:25:29.855Z,3.10
2019-02-02T16:27:59.317Z,3.10
2019-02-02T16:30:28.718Z,3.00
2019-02-02T16:32:58.119Z,3.10
2019-02-02T16:35:27.649Z,3.10
2019-02-02T16:37:57.003Z,3.10
2019-02-02T16:40:27.938Z,3.10
2019-02-02T16:42:57.336Z,3.00
2019-02-02T16:45:28.880Z,3.00
2019-02-02T16:47:58.294Z,3.00
2019-02-02T16:50:27.655Z,3.00
2019-02-02T16:52:57.052Z,3.10
2019-02-02T16:55:26.509Z,3.00
2019-02-02T16:57:55.862Z,2.90
2019-02-02T17:00:30.564Z,3.00
2019-02-02T17:02:59.989Z,2.90
2019-02-02T17:05:29.275Z,3.00
2019-02-02T17:08:17.753Z,3.00
2019-02-02T17:10:47.130Z,3.10
2019-02-02T17:13:16.478Z,3.10
2019-02-02T17:15:45.686Z,3.10
2019-02-02T17:18:15.048Z,3.10
2019-02-02T17:20:45.570Z,3.10
2019-02-02T17:23:14.850Z,3.10
2019-02-02T17:25:44.290Z,3.20
2019-02-02T17:28:13.634Z,3.20
2019-02-02T17:30:43.039Z,3.20
2019-02-02T17:33:14.729Z,3.20
2019-02-02T17:35:44.555Z,3.30
2019-02-02T17:38:13.885Z,3.20
2019-02-02T17:40:43.183Z,3.20
2019-02-02T17:43:12.521Z,3.20
2019-02-02T17:45:41.949Z,3.20
2019-02-02T17:48:13.249Z,3.20
2019-02-02T17:50:42.165Z,3.20
2019-02-02T17:53:11.571Z,3.20
2019-02-02T17:55:40.998Z,3.20
2019-02-02T17:58:13.171Z,3.20
2019-02-02T18:00:51.508Z,3.10
2019-02-02T18:03:20.949Z,3.10
2019-02-02T18:05:50.330Z,3.10
2019-02-02T18:08:19.614Z,3.00
2019-02-02T18:10:49.012Z,3.00
2019-02-02T18:13:18.535Z,2.90
2019-02-02T18:15:47.956Z,2.90
2019-02-02T18:18:17.261Z,2.90
2019-02-02T18:20:46.689Z,2.90
2019-02-02T18:23:18.073Z,2.80
2019-02-02T18:25:47.209Z,2.90
2019-02-02T18:28:16.568Z,2.90
2019-02-02T18:30:45.949Z,2.90
2019-02-02T18:33:15.297Z,2.90
2019-02-02T18:35:44.731Z,2.90
2019-02-02T18:38:14.097Z,2.90
2019-02-02T18:40:43.500Z,2.90
2019-02-02T18:43:12.913Z,2.90
2019-02-02T18:45:42.295Z,2.90
2019-02-02T18:48:11.666Z,2.80
2019-02-02T18:50:41.048Z,2.80
2019-02-02T18:53:10.465Z,2.80
2019-02-02T18:55:52.087Z,2.80
2019-02-02T18:58:21.469Z,2.80
2019-02-02T19:00:50.899Z,2.90
2019-02-02T19:03:21.102Z,2.90
2019-02-02T19:05:51.545Z,2.90
2019-02-02T19:08:20.895Z,2.90
2019-02-02T19:10:50.302Z,2.90
2019-02-02T19:13:19.749Z,2.90
2019-02-02T19:15:49.128Z,3.00
2019-02-02T19:18:18.497Z,2.80
2019-02-02T19:20:47.852Z,2.70
2019-02-02T19:23:24.627Z,2.70
2019-02-02T19:25:48.225Z,2.70
2019-02-02T19:28:17.520Z,2.80
2019-02-02T19:30:46.898Z,2.80
2019-02-02T19:33:16.233Z,2.90
2019-02-02T19:35:45.631Z,2.90
2019-02-02T19:38:14.932Z,2.90
2019-02-02T19:40:44.332Z,2.80
2019-02-02T19:43:13.649Z,2.80
2019-02-02T19:45:43.151Z,2.80
2019-02-02T19:48:12.527Z,2.80
2019-02-02T19:50:41.787Z,2.80
2019-02-02T19:53:11.175Z,2.90
2019-02-02T19:55:40.525Z,2.90
2019-02-02T19:58:09.956Z,2.90
2019-02-02T20:00:39.251Z,2.90
2019-02-02T20:03:08.637Z,2.90
2019-02-02T20:05:38.140Z,2.90
2019-02-02T20:08:07.514Z,2.90
2019-02-02T20:10:36.946Z,2.90
2019-02-02T20:13:06.412Z,3.00
2019-02-02T20:15:35.794Z,3.00
2019-02-02T20:18:10.017Z,3.00
2019-02-02T20:20:36.321Z,3.00
2019-02-02T20:23:05.807Z,2.90
2019-02-02T20:25:35.224Z,2.80
2019-02-02T20:28:04.719Z,2.80
2019-02-02T20:30:34.240Z,2.80
2019-02-02T20:33:03.526Z,2.80
2019-02-02T20:35:40.835Z,2.80
2019-02-02T20:38:03.893Z,2.80
2019-02-02T20:40:33.179Z,2.80
2019-02-02T20:43:02.609Z,2.80
2019-02-02T20:45:33.644Z,2.70
2019-02-02T20:48:02.930Z,2.70
2019-02-02T20:50:32.323Z,2.60
2019-02-02T20:53:01.674Z,2.60
2019-02-02T20:55:33.632Z,2.50
2019-02-02T20:58:03.057Z,2.50
2019-02-02T21:00:32.440Z,2.40
2019-02-02T21:03:01.774Z,2.40
2019-02-02T21:05:31.966Z,2.40
2019-02-02T21:08:01.420Z,2.30
2019-02-02T21:10:30.777Z,2.30
2019-02-02T21:13:00.104Z,2.20
2019-02-02T21:15:29.419Z,2.20
2019-02-02T21:17:58.708Z,2.20
2019-02-02T21:20:29.205Z,2.20
2019-02-02T21:22:58.649Z,2.10
2019-02-02T21:25:28.060Z,2.10
2019-02-02T21:27:57.406Z,2.10
2019-02-02T21:30:31.545Z,2.00
2019-02-02T21:33:00.928Z,1.90
2019-02-02T21:35:30.261Z,1.90
2019-02-02T21:37:59.674Z,1.80
2019-02-02T21:40:30.949Z,1.80
2019-02-02T21:43:00.319Z,1.70
2019-02-02T21:45:29.688Z,1.70
2019-02-02T21:47:59.116Z,1.70
2019-02-02T21:50:28.495Z,1.60
2019-02-02T21:52:57.886Z,1.60
2019-02-02T21:55:28.395Z,1.60
2019-02-02T21:57:57.877Z,1.60
2019-02-02T22:00:32.609Z,1.50
2019-02-02T22:03:01.985Z,1.50
2019-02-02T22:05:31.331Z,1.60
2019-02-02T22:08:00.843Z,1.60
2019-02-02T22:10:30.216Z,1.60
2019-02-02T22:12:59.892Z,1.70
2019-02-02T22:15:29.743Z,1.70
2019-02-02T22:17:59.086Z,1.70
2019-02-02T22:20:28.444Z,1.70
2019-02-02T22:22:57.841Z,1.70
2019-02-02T22:25:29.017Z,1.70
2019-02-02T22:27:58.401Z,1.70
2019-02-02T22:30:29.591Z,1.70
2019-02-02T22:32:59.054Z,1.70
2019-02-02T22:35:28.421Z,1.70
2019-02-02T22:37:58.084Z,1.70
2019-02-02T22:40:28.122Z,1.70
2019-02-02T22:42:57.474Z,1.70
2019-02-02T22:45:26.852Z,1.70
2019-02-02T22:47:56.130Z,1.80
2019-02-02T22:50:26.622Z,1.80
2019-02-02T22:52:56.187Z,1.90
2019-02-02T22:55:25.714Z,1.90
2019-02-02T22:57:55.191Z,1.90
2019-02-02T23:01:15.282Z,1.90
2019-02-02T23:04:05.574Z,1.90
2019-02-02T23:07:06.261Z,2.00
2019-02-02T23:10:15.644Z,2.00
2019-02-02T23:13:16.225Z,1.90
2019-02-02T23:16:32.223Z,1.90
2019-02-02T23:19:02.883Z,2.00
2019-02-02T23:21:32.958Z,2.00
2019-02-02T23:24:02.363Z,2.00
2019-02-02T23:26:37.355Z,2.00
2019-02-02T23:29:06.924Z,2.00
2019-02-02T23:31:36.219Z,2.00
2019-02-02T23:34:05.641Z,2.00
2019-02-02T23:36:35.037Z,2.00
2019-02-02T23:39:07.148Z,2.10
2019-02-02T23:41:36.735Z,2.10
2019-02-02T23:44:06.422Z,2.10
2019-02-02T23:46:35.831Z,2.20
2019-02-02T23:49:05.343Z,2.20
2019-02-02T23:51:37.709Z,2.30
2019-02-02T23:54:07.000Z,2.30
2019-02-02T23:56:36.390Z,2.30
2019-02-02T23:59:06.191Z,2.30
